sensor_id;sensor_type;location;lat;lon;timestamp;P1;durP1;ratioP1;P2;durP2;ratioP2
71127;SDS011;59249;59.736;30.568;2023-04-03T00:01:32;1.85;;;0.13;;
71127;SDS011;59249;59.736;30.568;2023-04-03T00:04:06;1.85;;;0.20;;
71127;SDS011;59249;59.736;30.568;2023-04-03T00:06:35;4.57;;;0.40;;
71127;SDS011;59249;59.736;30.568;2023-04-03T00:09:03;3.33;;;0.32;;
71127;SDS011;59249;59.736;30.568;2023-04-03T00:11:34;2.37;;;0.50;;
71127;SDS011;59249;59.736;30.568;2023-04-03T00:14:03;0.93;;;0.08;;
71127;SDS011;59249;59.736;30.568;2023-04-03T00:16:32;2.33;;;0.20;;
71127;SDS011;59249;59.736;30.568;2023-04-03T00:19:01;3.90;;;0.20;;
71127;SDS011;59249;59.736;30.568;2023-04-03T00:21:31;2.05;;;0.20;;
71127;SDS011;59249;59.736;30.568;2023-04-03T00:24:00;2.57;;;0.30;;
71127;SDS011;59249;59.736;30.568;2023-04-03T00:26:29;1.88;;;0.70;;
71127;SDS011;59249;59.736;30.568;2023-04-03T00:28:57;1.65;;;0.40;;
71127;SDS011;59249;59.736;30.568;2023-04-03T00:31:26;2.60;;;0.25;;
71127;SDS011;59249;59.736;30.568;2023-04-03T00:33:55;1.88;;;0.40;;
71127;SDS011;59249;59.736;30.568;2023-04-03T00:36:23;4.00;;;0.20;;
71127;SDS011;59249;59.736;30.568;2023-04-03T00:38:54;0.65;;;0.10;;
71127;SDS011;59249;59.736;30.568;2023-04-03T00:41:23;1.00;;;0.10;;
71127;SDS011;59249;59.736;30.568;2023-04-03T00:43:52;5.10;;;0.40;;
71127;SDS011;59249;59.736;30.568;2023-04-03T00:46:21;2.20;;;0.15;;
71127;SDS011;59249;59.736;30.568;2023-04-03T00:48:50;4.33;;;0.30;;
71127;SDS011;59249;59.736;30.568;2023-04-03T00:51:19;4.53;;;0.20;;
71127;SDS011;59249;59.736;30.568;2023-04-03T00:53:54;2.10;;;0.40;;
71127;SDS011;59249;59.736;30.568;2023-04-03T00:56:27;2.83;;;0.40;;
71127;SDS011;59249;59.736;30.568;2023-04-03T00:58:59;3.50;;;0.20;;
71127;SDS011;59249;59.736;30.568;2023-04-03T01:01:32;2.30;;;0.30;;
71127;SDS011;59249;59.736;30.568;2023-04-03T01:04:01;4.70;;;0.32;;
71127;SDS011;59249;59.736;30.568;2023-04-03T01:06:33;2.58;;;0.30;;
71127;SDS011;59249;59.736;30.568;2023-04-03T01:09:09;3.00;;;0.40;;
71127;SDS011;59249;59.736;30.568;2023-04-03T01:11:41;0.63;;;0.10;;
71127;SDS011;59249;59.736;30.568;2023-04-03T01:14:10;3.33;;;0.33;;
71127;SDS011;59249;59.736;30.568;2023-04-03T01:16:39;1.73;;;0.25;;
71127;SDS011;59249;59.736;30.568;2023-04-03T01:19:08;1.95;;;0.10;;
71127;SDS011;59249;59.736;30.568;2023-04-03T01:21:52;1.45;;;0.20;;
71127;SDS011;59249;59.736;30.568;2023-04-03T01:24:35;7.25;;;0.73;;
71127;SDS011;59249;59.736;30.568;2023-04-03T01:27:09;2.40;;;0.17;;
71127;SDS011;59249;59.736;30.568;2023-04-03T01:29:39;2.03;;;0.30;;
71127;SDS011;59249;59.736;30.568;2023-04-03T01:32:11;3.30;;;0.45;;
71127;SDS011;59249;59.736;30.568;2023-04-03T01:34:41;3.42;;;0.20;;
71127;SDS011;59249;59.736;30.568;2023-04-03T01:40:04;1.63;;;0.20;;
71127;SDS011;59249;59.736;30.568;2023-04-03T01:42:34;2.75;;;0.55;;
71127;SDS011;59249;59.736;30.568;2023-04-03T01:45:04;3.25;;;0.20;;
71127;SDS011;59249;59.736;30.568;2023-04-03T01:47:35;1.70;;;0.15;;
71127;SDS011;59249;59.736;30.568;2023-04-03T01:50:05;2.22;;;0.40;;
71127;SDS011;59249;59.736;30.568;2023-04-03T01:52:34;5.63;;;0.50;;
71127;SDS011;59249;59.736;30.568;2023-04-03T01:55:04;2.03;;;0.45;;
71127;SDS011;59249;59.736;30.568;2023-04-03T01:57:34;1.05;;;0.28;;
71127;SDS011;59249;59.736;30.568;2023-04-03T02:00:03;4.53;;;0.40;;
71127;SDS011;59249;59.736;30.568;2023-04-03T02:02:40;4.45;;;0.45;;
71127;SDS011;59249;59.736;30.568;2023-04-03T02:05:08;0.70;;;0.10;;
71127;SDS011;59249;59.736;30.568;2023-04-03T02:07:37;5.55;;;0.30;;
71127;SDS011;59249;59.736;30.568;2023-04-03T02:10:07;3.03;;;0.40;;
71127;SDS011;59249;59.736;30.568;2023-04-03T02:12:37;3.10;;;0.32;;
71127;SDS011;59249;59.736;30.568;2023-04-03T02:15:07;8.27;;;0.80;;
71127;SDS011;59249;59.736;30.568;2023-04-03T02:17:37;7.53;;;1.27;;
71127;SDS011;59249;59.736;30.568;2023-04-03T02:20:07;7.82;;;0.68;;
71127;SDS011;59249;59.736;30.568;2023-04-03T02:22:37;3.72;;;0.60;;
71127;SDS011;59249;59.736;30.568;2023-04-03T02:25:05;1.67;;;0.22;;
71127;SDS011;59249;59.736;30.568;2023-04-03T02:27:37;4.20;;;0.43;;
71127;SDS011;59249;59.736;30.568;2023-04-03T02:30:06;2.77;;;0.30;;
71127;SDS011;59249;59.736;30.568;2023-04-03T02:32:37;2.80;;;0.40;;
71127;SDS011;59249;59.736;30.568;2023-04-03T02:35:08;0.63;;;0.10;;
71127;SDS011;59249;59.736;30.568;2023-04-03T02:37:39;3.45;;;0.73;;
71127;SDS011;59249;59.736;30.568;2023-04-03T02:40:08;2.58;;;0.32;;
71127;SDS011;59249;59.736;30.568;2023-04-03T02:42:38;1.47;;;0.13;;
71127;SDS011;59249;59.736;30.568;2023-04-03T02:45:07;4.63;;;0.90;;
71127;SDS011;59249;59.736;30.568;2023-04-03T02:47:36;3.00;;;0.52;;
71127;SDS011;59249;59.736;30.568;2023-04-03T02:50:05;3.80;;;0.10;;
71127;SDS011;59249;59.736;30.568;2023-04-03T02:52:36;3.33;;;0.30;;
71127;SDS011;59249;59.736;30.568;2023-04-03T02:55:05;1.33;;;0.20;;
71127;SDS011;59249;59.736;30.568;2023-04-03T02:57:35;23.63;;;1.13;;
71127;SDS011;59249;59.736;30.568;2023-04-03T03:00:04;5.15;;;0.93;;
71127;SDS011;59249;59.736;30.568;2023-04-03T03:02:35;6.90;;;0.30;;
71127;SDS011;59249;59.736;30.568;2023-04-03T03:05:04;4.57;;;0.95;;
71127;SDS011;59249;59.736;30.568;2023-04-03T03:07:33;1.30;;;0.20;;
71127;SDS011;59249;59.736;30.568;2023-04-03T03:10:03;1.13;;;0.30;;
71127;SDS011;59249;59.736;30.568;2023-04-03T03:12:34;4.82;;;1.73;;
71127;SDS011;59249;59.736;30.568;2023-04-03T03:15:02;1.95;;;0.60;;
71127;SDS011;59249;59.736;30.568;2023-04-03T03:17:32;1.33;;;0.40;;
71127;SDS011;59249;59.736;30.568;2023-04-03T03:20:03;0.63;;;0.30;;
71127;SDS011;59249;59.736;30.568;2023-04-03T03:22:33;7.45;;;1.33;;
71127;SDS011;59249;59.736;30.568;2023-04-03T03:25:05;3.22;;;0.10;;
71127;SDS011;59249;59.736;30.568;2023-04-03T03:27:35;4.85;;;1.60;;
71127;SDS011;59249;59.736;30.568;2023-04-03T03:30:04;1.55;;;0.20;;
71127;SDS011;59249;59.736;30.568;2023-04-03T03:32:35;4.13;;;0.57;;
71127;SDS011;59249;59.736;30.568;2023-04-03T03:35:04;1.42;;;0.40;;
71127;SDS011;59249;59.736;30.568;2023-04-03T03:37:33;6.80;;;1.17;;
71127;SDS011;59249;59.736;30.568;2023-04-03T03:40:02;5.88;;;0.98;;
71127;SDS011;59249;59.736;30.568;2023-04-03T03:42:33;5.53;;;0.68;;
71127;SDS011;59249;59.736;30.568;2023-04-03T03:45:02;5.10;;;0.53;;
71127;SDS011;59249;59.736;30.568;2023-04-03T03:47:32;5.35;;;0.45;;
71127;SDS011;59249;59.736;30.568;2023-04-03T03:50:01;11.38;;;2.28;;
71127;SDS011;59249;59.736;30.568;2023-04-03T03:52:30;7.63;;;1.60;;
71127;SDS011;59249;59.736;30.568;2023-04-03T03:55:00;4.88;;;0.93;;
71127;SDS011;59249;59.736;30.568;2023-04-03T03:57:30;2.53;;;0.90;;
71127;SDS011;59249;59.736;30.568;2023-04-03T03:59:59;2.75;;;0.20;;
71127;SDS011;59249;59.736;30.568;2023-04-03T04:02:29;6.07;;;1.95;;
71127;SDS011;59249;59.736;30.568;2023-04-03T04:04:58;4.70;;;0.85;;
71127;SDS011;59249;59.736;30.568;2023-04-03T04:07:28;5.28;;;1.00;;
71127;SDS011;59249;59.736;30.568;2023-04-03T04:09:57;5.60;;;0.67;;
71127;SDS011;59249;59.736;30.568;2023-04-03T04:12:26;8.27;;;1.50;;
71127;SDS011;59249;59.736;30.568;2023-04-03T04:14:56;8.82;;;0.98;;
71127;SDS011;59249;59.736;30.568;2023-04-03T04:17:26;5.18;;;0.95;;
71127;SDS011;59249;59.736;30.568;2023-04-03T04:19:55;8.20;;;0.90;;
71127;SDS011;59249;59.736;30.568;2023-04-03T04:22:25;6.17;;;0.83;;
71127;SDS011;59249;59.736;30.568;2023-04-03T04:24:55;7.35;;;1.67;;
71127;SDS011;59249;59.736;30.568;2023-04-03T04:27:24;2.65;;;0.50;;
71127;SDS011;59249;59.736;30.568;2023-04-03T04:29:55;5.15;;;0.45;;
71127;SDS011;59249;59.736;30.568;2023-04-03T04:32:26;8.55;;;0.60;;
71127;SDS011;59249;59.736;30.568;2023-04-03T04:34:55;3.73;;;0.60;;
71127;SDS011;59249;59.736;30.568;2023-04-03T04:37:24;4.55;;;1.10;;
71127;SDS011;59249;59.736;30.568;2023-04-03T04:39:53;6.30;;;1.13;;
71127;SDS011;59249;59.736;30.568;2023-04-03T04:42:21;5.30;;;0.80;;
71127;SDS011;59249;59.736;30.568;2023-04-03T04:44:50;3.72;;;0.30;;
71127;SDS011;59249;59.736;30.568;2023-04-03T04:47:20;4.47;;;0.50;;
71127;SDS011;59249;59.736;30.568;2023-04-03T04:49:50;9.45;;;1.33;;
71127;SDS011;59249;59.736;30.568;2023-04-03T04:52:19;3.00;;;0.50;;
71127;SDS011;59249;59.736;30.568;2023-04-03T04:54:48;2.85;;;0.30;;
71127;SDS011;59249;59.736;30.568;2023-04-03T04:57:17;6.57;;;1.58;;
71127;SDS011;59249;59.736;30.568;2023-04-03T04:59:46;7.60;;;1.27;;
71127;SDS011;59249;59.736;30.568;2023-04-03T05:02:15;4.82;;;0.82;;
71127;SDS011;59249;59.736;30.568;2023-04-03T05:04:46;3.13;;;0.52;;
71127;SDS011;59249;59.736;30.568;2023-04-03T05:07:20;5.22;;;0.47;;
71127;SDS011;59249;59.736;30.568;2023-04-03T05:09:49;4.53;;;0.98;;
71127;SDS011;59249;59.736;30.568;2023-04-03T05:12:18;9.40;;;2.37;;
71127;SDS011;59249;59.736;30.568;2023-04-03T05:14:53;9.45;;;2.40;;
71127;SDS011;59249;59.736;30.568;2023-04-03T05:17:22;8.23;;;1.20;;
71127;SDS011;59249;59.736;30.568;2023-04-03T05:19:56;7.40;;;1.40;;
71127;SDS011;59249;59.736;30.568;2023-04-03T05:22:26;9.73;;;1.55;;
71127;SDS011;59249;59.736;30.568;2023-04-03T05:24:59;11.27;;;1.73;;
71127;SDS011;59249;59.736;30.568;2023-04-03T05:27:29;5.63;;;0.63;;
71127;SDS011;59249;59.736;30.568;2023-04-03T05:29:58;3.00;;;0.55;;
71127;SDS011;59249;59.736;30.568;2023-04-03T05:32:29;6.38;;;1.30;;
71127;SDS011;59249;59.736;30.568;2023-04-03T05:35:19;7.07;;;1.52;;
71127;SDS011;59249;59.736;30.568;2023-04-03T05:37:51;7.87;;;1.33;;
71127;SDS011;59249;59.736;30.568;2023-04-03T05:40:20;6.30;;;0.60;;
71127;SDS011;59249;59.736;30.568;2023-04-03T05:42:52;5.18;;;0.73;;
71127;SDS011;59249;59.736;30.568;2023-04-03T05:45:23;5.95;;;1.35;;
71127;SDS011;59249;59.736;30.568;2023-04-03T05:47:52;4.32;;;1.02;;
71127;SDS011;59249;59.736;30.568;2023-04-03T05:50:23;5.57;;;0.70;;
71127;SDS011;59249;59.736;30.568;2023-04-03T05:52:53;8.93;;;1.02;;
71127;SDS011;59249;59.736;30.568;2023-04-03T05:55:28;4.88;;;0.80;;
71127;SDS011;59249;59.736;30.568;2023-04-03T05:57:57;3.75;;;0.90;;
71127;SDS011;59249;59.736;30.568;2023-04-03T06:00:26;10.02;;;1.35;;
71127;SDS011;59249;59.736;30.568;2023-04-03T06:03:00;4.00;;;0.80;;
71127;SDS011;59249;59.736;30.568;2023-04-03T06:05:31;10.95;;;1.13;;
71127;SDS011;59249;59.736;30.568;2023-04-03T06:07:59;3.95;;;0.63;;
71127;SDS011;59249;59.736;30.568;2023-04-03T06:10:30;3.60;;;0.73;;
71127;SDS011;59249;59.736;30.568;2023-04-03T06:12:59;7.55;;;1.02;;
71127;SDS011;59249;59.736;30.568;2023-04-03T06:15:28;4.77;;;1.00;;
71127;SDS011;59249;59.736;30.568;2023-04-03T06:17:56;4.38;;;0.47;;
71127;SDS011;59249;59.736;30.568;2023-04-03T06:20:26;8.35;;;2.08;;
71127;SDS011;59249;59.736;30.568;2023-04-03T06:22:56;6.53;;;1.42;;
71127;SDS011;59249;59.736;30.568;2023-04-03T06:25:26;6.97;;;1.48;;
71127;SDS011;59249;59.736;30.568;2023-04-03T06:27:55;7.37;;;1.40;;
71127;SDS011;59249;59.736;30.568;2023-04-03T06:30:24;5.72;;;1.13;;
71127;SDS011;59249;59.736;30.568;2023-04-03T06:32:53;9.35;;;1.33;;
71127;SDS011;59249;59.736;30.568;2023-04-03T06:35:23;8.77;;;1.10;;
71127;SDS011;59249;59.736;30.568;2023-04-03T06:37:53;7.90;;;1.67;;
71127;SDS011;59249;59.736;30.568;2023-04-03T06:40:24;4.73;;;0.97;;
71127;SDS011;59249;59.736;30.568;2023-04-03T06:42:53;8.18;;;0.40;;
71127;SDS011;59249;59.736;30.568;2023-04-03T06:45:22;2.80;;;0.88;;
71127;SDS011;59249;59.736;30.568;2023-04-03T06:47:52;7.57;;;0.75;;
71127;SDS011;59249;59.736;30.568;2023-04-03T06:50:21;6.55;;;0.70;;
71127;SDS011;59249;59.736;30.568;2023-04-03T06:52:49;6.40;;;1.10;;
71127;SDS011;59249;59.736;30.568;2023-04-03T06:55:19;3.75;;;0.70;;
71127;SDS011;59249;59.736;30.568;2023-04-03T06:57:48;6.38;;;1.17;;
71127;SDS011;59249;59.736;30.568;2023-04-03T07:00:17;6.43;;;1.35;;
71127;SDS011;59249;59.736;30.568;2023-04-03T07:02:47;7.55;;;1.20;;
71127;SDS011;59249;59.736;30.568;2023-04-03T07:05:16;2.20;;;0.87;;
71127;SDS011;59249;59.736;30.568;2023-04-03T07:07:45;9.23;;;1.20;;
71127;SDS011;59249;59.736;30.568;2023-04-03T07:10:14;9.52;;;1.30;;
71127;SDS011;59249;59.736;30.568;2023-04-03T07:12:44;3.53;;;0.77;;
71127;SDS011;59249;59.736;30.568;2023-04-03T07:15:13;6.50;;;0.68;;
71127;SDS011;59249;59.736;30.568;2023-04-03T07:17:43;4.87;;;0.97;;
71127;SDS011;59249;59.736;30.568;2023-04-03T07:20:30;6.85;;;1.35;;
71127;SDS011;59249;59.736;30.568;2023-04-03T07:22:59;6.25;;;0.98;;
71127;SDS011;59249;59.736;30.568;2023-04-03T07:25:30;5.45;;;0.80;;
71127;SDS011;59249;59.736;30.568;2023-04-03T07:28:01;5.15;;;1.40;;
71127;SDS011;59249;59.736;30.568;2023-04-03T07:30:31;3.10;;;0.93;;
71127;SDS011;59249;59.736;30.568;2023-04-03T07:32:59;4.13;;;1.00;;
71127;SDS011;59249;59.736;30.568;2023-04-03T07:35:28;5.60;;;1.65;;
71127;SDS011;59249;59.736;30.568;2023-04-03T07:37:57;5.03;;;0.98;;
71127;SDS011;59249;59.736;30.568;2023-04-03T07:40:26;6.05;;;0.80;;
71127;SDS011;59249;59.736;30.568;2023-04-03T07:42:54;4.30;;;1.10;;
71127;SDS011;59249;59.736;30.568;2023-04-03T07:45:25;3.28;;;0.77;;
71127;SDS011;59249;59.736;30.568;2023-04-03T07:47:55;4.65;;;1.15;;
71127;SDS011;59249;59.736;30.568;2023-04-03T07:50:23;1.63;;;0.32;;
71127;SDS011;59249;59.736;30.568;2023-04-03T07:52:55;6.45;;;1.02;;
71127;SDS011;59249;59.736;30.568;2023-04-03T07:55:24;7.70;;;1.63;;
71127;SDS011;59249;59.736;30.568;2023-04-03T07:57:53;6.18;;;1.13;;
71127;SDS011;59249;59.736;30.568;2023-04-03T08:00:23;4.60;;;1.30;;
71127;SDS011;59249;59.736;30.568;2023-04-03T08:02:54;1.67;;;0.40;;
71127;SDS011;59249;59.736;30.568;2023-04-03T08:05:23;6.43;;;1.17;;
71127;SDS011;59249;59.736;30.568;2023-04-03T08:07:52;6.07;;;1.53;;
71127;SDS011;59249;59.736;30.568;2023-04-03T08:10:21;5.93;;;1.08;;
71127;SDS011;59249;59.736;30.568;2023-04-03T08:12:49;4.32;;;0.90;;
71127;SDS011;59249;59.736;30.568;2023-04-03T08:15:18;5.70;;;2.05;;
71127;SDS011;59249;59.736;30.568;2023-04-03T08:17:47;7.22;;;2.00;;
71127;SDS011;59249;59.736;30.568;2023-04-03T08:20:17;6.50;;;0.97;;
71127;SDS011;59249;59.736;30.568;2023-04-03T08:22:46;8.02;;;2.10;;
71127;SDS011;59249;59.736;30.568;2023-04-03T08:25:15;7.10;;;3.00;;
71127;SDS011;59249;59.736;30.568;2023-04-03T08:27:44;4.40;;;1.77;;
71127;SDS011;59249;59.736;30.568;2023-04-03T08:30:13;5.65;;;1.70;;
71127;SDS011;59249;59.736;30.568;2023-04-03T08:32:42;5.40;;;1.47;;
71127;SDS011;59249;59.736;30.568;2023-04-03T08:35:11;4.10;;;1.70;;
71127;SDS011;59249;59.736;30.568;2023-04-03T08:37:41;8.25;;;2.00;;
71127;SDS011;59249;59.736;30.568;2023-04-03T08:40:13;4.78;;;1.67;;
71127;SDS011;59249;59.736;30.568;2023-04-03T08:42:47;7.07;;;2.17;;
71127;SDS011;59249;59.736;30.568;2023-04-03T08:45:29;6.20;;;1.67;;
71127;SDS011;59249;59.736;30.568;2023-04-03T08:48:14;4.63;;;1.27;;
71127;SDS011;59249;59.736;30.568;2023-04-03T08:51:04;8.05;;;2.38;;
71127;SDS011;59249;59.736;30.568;2023-04-03T08:53:46;6.28;;;2.15;;
71127;SDS011;59249;59.736;30.568;2023-04-03T08:56:34;4.35;;;1.15;;
71127;SDS011;59249;59.736;30.568;2023-04-03T08:59:05;3.20;;;0.70;;
71127;SDS011;59249;59.736;30.568;2023-04-03T09:01:54;6.45;;;1.48;;
71127;SDS011;59249;59.736;30.568;2023-04-03T09:04:25;7.03;;;1.35;;
71127;SDS011;59249;59.736;30.568;2023-04-03T09:07:01;6.07;;;1.17;;
71127;SDS011;59249;59.736;30.568;2023-04-03T09:09:39;5.75;;;1.63;;
71127;SDS011;59249;59.736;30.568;2023-04-03T09:12:12;3.97;;;0.70;;
71127;SDS011;59249;59.736;30.568;2023-04-03T09:14:57;4.13;;;1.00;;
71127;SDS011;59249;59.736;30.568;2023-04-03T09:17:41;5.03;;;1.25;;
71127;SDS011;59249;59.736;30.568;2023-04-03T09:20:19;2.30;;;0.40;;
71127;SDS011;59249;59.736;30.568;2023-04-03T09:22:56;4.13;;;0.80;;
71127;SDS011;59249;59.736;30.568;2023-04-03T09:25:27;2.27;;;0.60;;
71127;SDS011;59249;59.736;30.568;2023-04-03T09:28:01;6.18;;;1.52;;
71127;SDS011;59249;59.736;30.568;2023-04-03T09:30:36;5.03;;;0.75;;
71127;SDS011;59249;59.736;30.568;2023-04-03T09:33:05;2.72;;;0.88;;
71127;SDS011;59249;59.736;30.568;2023-04-03T09:35:35;3.47;;;0.70;;
71127;SDS011;59249;59.736;30.568;2023-04-03T09:38:15;5.23;;;1.73;;
71127;SDS011;59249;59.736;30.568;2023-04-03T09:40:49;4.35;;;1.20;;
71127;SDS011;59249;59.736;30.568;2023-04-03T09:43:30;2.53;;;0.77;;
71127;SDS011;59249;59.736;30.568;2023-04-03T09:49:05;1.95;;;0.38;;
71127;SDS011;59249;59.736;30.568;2023-04-03T09:51:39;5.00;;;1.10;;
71127;SDS011;59249;59.736;30.568;2023-04-03T09:54:23;7.53;;;2.00;;
71127;SDS011;59249;59.736;30.568;2023-04-03T09:57:10;6.95;;;1.70;;
71127;SDS011;59249;59.736;30.568;2023-04-03T09:59:45;4.00;;;1.48;;
71127;SDS011;59249;59.736;30.568;2023-04-03T10:02:30;7.65;;;1.52;;
71127;SDS011;59249;59.736;30.568;2023-04-03T10:05:03;3.87;;;1.17;;
71127;SDS011;59249;59.736;30.568;2023-04-03T10:08:06;3.35;;;0.45;;
71127;SDS011;59249;59.736;30.568;2023-04-03T10:10:39;3.72;;;0.90;;
71127;SDS011;59249;59.736;30.568;2023-04-03T10:13:11;2.58;;;0.68;;
71127;SDS011;59249;59.736;30.568;2023-04-03T10:15:48;3.65;;;0.85;;
71127;SDS011;59249;59.736;30.568;2023-04-03T10:18:28;4.83;;;1.23;;
71127;SDS011;59249;59.736;30.568;2023-04-03T10:21:09;5.88;;;1.20;;
71127;SDS011;59249;59.736;30.568;2023-04-03T10:23:54;3.80;;;0.82;;
71127;SDS011;59249;59.736;30.568;2023-04-03T10:26:37;5.78;;;0.90;;
71127;SDS011;59249;59.736;30.568;2023-04-03T10:29:19;1.65;;;0.40;;
71127;SDS011;59249;59.736;30.568;2023-04-03T10:32:06;7.43;;;1.47;;
71127;SDS011;59249;59.736;30.568;2023-04-03T10:34:56;1.90;;;0.50;;
71127;SDS011;59249;59.736;30.568;2023-04-03T10:37:45;10.05;;;0.82;;
71127;SDS011;59249;59.736;30.568;2023-04-03T10:40:29;9.25;;;1.40;;
71127;SDS011;59249;59.736;30.568;2023-04-03T10:43:08;6.03;;;1.10;;
71127;SDS011;59249;59.736;30.568;2023-04-03T10:45:53;5.53;;;1.40;;
71127;SDS011;59249;59.736;30.568;2023-04-03T10:48:31;6.63;;;1.17;;
71127;SDS011;59249;59.736;30.568;2023-04-03T10:51:12;5.35;;;1.70;;
71127;SDS011;59249;59.736;30.568;2023-04-03T10:53:55;9.95;;;1.75;;
71127;SDS011;59249;59.736;30.568;2023-04-03T10:56:35;4.15;;;1.15;;
71127;SDS011;59249;59.736;30.568;2023-04-03T10:59:13;9.17;;;1.77;;
71127;SDS011;59249;59.736;30.568;2023-04-03T11:01:53;5.63;;;1.05;;
71127;SDS011;59249;59.736;30.568;2023-04-03T11:04:26;3.78;;;0.90;;
71127;SDS011;59249;59.736;30.568;2023-04-03T11:07:03;3.08;;;0.50;;
71127;SDS011;59249;59.736;30.568;2023-04-03T11:09:40;7.78;;;1.70;;
71127;SDS011;59249;59.736;30.568;2023-04-03T11:12:12;5.47;;;1.60;;
71127;SDS011;59249;59.736;30.568;2023-04-03T11:14:48;3.90;;;1.20;;
71127;SDS011;59249;59.736;30.568;2023-04-03T11:17:26;5.35;;;1.85;;
71127;SDS011;59249;59.736;30.568;2023-04-03T11:20:03;6.70;;;1.90;;
71127;SDS011;59249;59.736;30.568;2023-04-03T11:22:45;11.45;;;2.55;;
71127;SDS011;59249;59.736;30.568;2023-04-03T11:25:19;6.43;;;1.83;;
71127;SDS011;59249;59.736;30.568;2023-04-03T11:27:54;6.40;;;2.15;;
71127;SDS011;59249;59.736;30.568;2023-04-03T11:30:27;7.60;;;2.20;;
71127;SDS011;59249;59.736;30.568;2023-04-03T11:35:59;13.45;;;4.20;;
71127;SDS011;59249;59.736;30.568;2023-04-03T11:38:51;12.77;;;3.07;;
71127;SDS011;59249;59.736;30.568;2023-04-03T11:41:26;5.68;;;1.88;;
71127;SDS011;59249;59.736;30.568;2023-04-03T11:43:59;6.82;;;1.35;;
71127;SDS011;59249;59.736;30.568;2023-04-03T11:46:49;7.28;;;1.83;;
71127;SDS011;59249;59.736;30.568;2023-04-03T11:55:42;3.95;;;1.25;;
71127;SDS011;59249;59.736;30.568;2023-04-03T11:58:27;5.57;;;0.88;;
71127;SDS011;59249;59.736;30.568;2023-04-03T12:00:59;5.55;;;0.93;;
71127;SDS011;59249;59.736;30.568;2023-04-03T12:06:49;3.63;;;0.40;;
71127;SDS011;59249;59.736;30.568;2023-04-03T12:12:58;3.08;;;0.73;;
71127;SDS011;59249;59.736;30.568;2023-04-03T12:24:43;4.50;;;1.05;;
71127;SDS011;59249;59.736;30.568;2023-04-03T12:27:22;4.80;;;0.93;;
71127;SDS011;59249;59.736;30.568;2023-04-03T12:29:56;7.05;;;0.80;;
71127;SDS011;59249;59.736;30.568;2023-04-03T12:33:12;4.15;;;0.70;;
71127;SDS011;59249;59.736;30.568;2023-04-03T12:35:57;3.17;;;0.67;;
71127;SDS011;59249;59.736;30.568;2023-04-03T12:38:49;4.38;;;0.82;;
71127;SDS011;59249;59.736;30.568;2023-04-03T12:41:53;2.13;;;0.30;;
71127;SDS011;59249;59.736;30.568;2023-04-03T12:44:38;4.30;;;0.57;;
71127;SDS011;59249;59.736;30.568;2023-04-03T12:47:22;1.83;;;0.43;;
71127;SDS011;59249;59.736;30.568;2023-04-03T12:49:55;3.50;;;0.73;;
71127;SDS011;59249;59.736;30.568;2023-04-03T12:52:34;3.45;;;0.38;;
71127;SDS011;59249;59.736;30.568;2023-04-03T12:55:15;3.30;;;1.10;;
71127;SDS011;59249;59.736;30.568;2023-04-03T12:57:45;4.13;;;0.90;;
71127;SDS011;59249;59.736;30.568;2023-04-03T13:00:29;5.85;;;1.13;;
71127;SDS011;59249;59.736;30.568;2023-04-03T13:03:02;2.87;;;0.50;;
71127;SDS011;59249;59.736;30.568;2023-04-03T13:05:33;5.47;;;1.48;;
71127;SDS011;59249;59.736;30.568;2023-04-03T13:08:05;5.95;;;1.23;;
71127;SDS011;59249;59.736;30.568;2023-04-03T13:10:45;17.85;;;1.25;;
71127;SDS011;59249;59.736;30.568;2023-04-03T13:13:21;4.78;;;1.48;;
71127;SDS011;59249;59.736;30.568;2023-04-03T13:15:54;7.93;;;1.30;;
71127;SDS011;59249;59.736;30.568;2023-04-03T13:18:25;5.32;;;0.70;;
71127;SDS011;59249;59.736;30.568;2023-04-03T13:21:00;6.88;;;1.20;;
71127;SDS011;59249;59.736;30.568;2023-04-03T13:23:35;3.25;;;0.50;;
71127;SDS011;59249;59.736;30.568;2023-04-03T13:26:09;2.60;;;0.25;;
71127;SDS011;59249;59.736;30.568;2023-04-03T13:28:39;6.77;;;1.07;;
71127;SDS011;59249;59.736;30.568;2023-04-03T13:31:14;7.65;;;1.25;;
71127;SDS011;59249;59.736;30.568;2023-04-03T13:33:53;3.03;;;0.52;;
71127;SDS011;59249;59.736;30.568;2023-04-03T13:36:27;4.28;;;0.95;;
71127;SDS011;59249;59.736;30.568;2023-04-03T13:39:02;6.22;;;1.48;;
71127;SDS011;59249;59.736;30.568;2023-04-03T13:41:37;5.13;;;1.13;;
71127;SDS011;59249;59.736;30.568;2023-04-03T13:44:18;8.88;;;2.75;;
71127;SDS011;59249;59.736;30.568;2023-04-03T13:46:57;7.32;;;2.97;;
71127;SDS011;59249;59.736;30.568;2023-04-03T13:49:30;10.57;;;2.97;;
71127;SDS011;59249;59.736;30.568;2023-04-03T13:52:02;13.18;;;3.58;;
71127;SDS011;59249;59.736;30.568;2023-04-03T13:54:52;8.83;;;3.20;;
71127;SDS011;59249;59.736;30.568;2023-04-03T13:57:26;6.50;;;2.25;;
71127;SDS011;59249;59.736;30.568;2023-04-03T13:59:56;4.55;;;2.03;;
71127;SDS011;59249;59.736;30.568;2023-04-03T14:02:29;6.55;;;1.48;;
71127;SDS011;59249;59.736;30.568;2023-04-03T14:05:01;8.75;;;2.97;;
71127;SDS011;59249;59.736;30.568;2023-04-03T14:07:34;9.70;;;3.23;;
71127;SDS011;59249;59.736;30.568;2023-04-03T14:10:04;4.25;;;1.67;;
71127;SDS011;59249;59.736;30.568;2023-04-03T14:12:37;8.00;;;2.90;;
71127;SDS011;59249;59.736;30.568;2023-04-03T14:15:11;8.52;;;3.28;;
71127;SDS011;59249;59.736;30.568;2023-04-03T14:17:47;8.52;;;2.42;;
71127;SDS011;59249;59.736;30.568;2023-04-03T14:20:19;8.70;;;2.53;;
71127;SDS011;59249;59.736;30.568;2023-04-03T14:22:50;7.43;;;2.38;;
71127;SDS011;59249;59.736;30.568;2023-04-03T14:25:20;5.95;;;2.53;;
71127;SDS011;59249;59.736;30.568;2023-04-03T14:27:52;8.80;;;3.42;;
71127;SDS011;59249;59.736;30.568;2023-04-03T14:30:23;10.07;;;4.57;;
71127;SDS011;59249;59.736;30.568;2023-04-03T14:32:59;8.23;;;2.07;;
71127;SDS011;59249;59.736;30.568;2023-04-03T14:35:33;8.98;;;2.85;;
71127;SDS011;59249;59.736;30.568;2023-04-03T14:38:01;7.20;;;2.38;;
71127;SDS011;59249;59.736;30.568;2023-04-03T14:40:33;2.65;;;0.95;;
71127;SDS011;59249;59.736;30.568;2023-04-03T14:43:08;12.57;;;1.20;;
71127;SDS011;59249;59.736;30.568;2023-04-03T14:45:40;10.03;;;2.87;;
71127;SDS011;59249;59.736;30.568;2023-04-03T14:48:09;6.72;;;1.60;;
71127;SDS011;59249;59.736;30.568;2023-04-03T14:50:45;5.22;;;1.52;;
71127;SDS011;59249;59.736;30.568;2023-04-03T14:53:30;7.53;;;2.92;;
71127;SDS011;59249;59.736;30.568;2023-04-03T14:56:04;6.15;;;1.98;;
71127;SDS011;59249;59.736;30.568;2023-04-03T14:58:41;5.93;;;2.00;;
71127;SDS011;59249;59.736;30.568;2023-04-03T15:01:10;7.53;;;3.13;;
71127;SDS011;59249;59.736;30.568;2023-04-03T15:03:40;6.20;;;2.42;;
71127;SDS011;59249;59.736;30.568;2023-04-03T15:06:10;4.78;;;1.70;;
71127;SDS011;59249;59.736;30.568;2023-04-03T15:08:41;7.22;;;2.47;;
71127;SDS011;59249;59.736;30.568;2023-04-03T15:11:12;7.87;;;1.97;;
71127;SDS011;59249;59.736;30.568;2023-04-03T15:13:44;7.28;;;2.25;;
71127;SDS011;59249;59.736;30.568;2023-04-03T15:16:14;5.80;;;2.08;;
71127;SDS011;59249;59.736;30.568;2023-04-03T15:18:47;6.47;;;1.95;;
71127;SDS011;59249;59.736;30.568;2023-04-03T15:21:16;3.50;;;1.30;;
71127;SDS011;59249;59.736;30.568;2023-04-03T15:23:45;8.00;;;2.93;;
71127;SDS011;59249;59.736;30.568;2023-04-03T15:26:13;9.60;;;2.65;;
71127;SDS011;59249;59.736;30.568;2023-04-03T15:28:46;3.50;;;0.90;;
71127;SDS011;59249;59.736;30.568;2023-04-03T15:31:15;4.95;;;1.42;;
71127;SDS011;59249;59.736;30.568;2023-04-03T15:33:44;7.65;;;2.00;;
71127;SDS011;59249;59.736;30.568;2023-04-03T15:36:12;6.97;;;2.27;;
71127;SDS011;59249;59.736;30.568;2023-04-03T15:38:58;8.52;;;1.70;;